Terminal Aerodrome Forecast
Issued by NWS Detroit/Pontiac, MI

Home | Current Version | Previous Version | Text Only | Print | Product List | Glossary On
Versions: 1 2 3 4 5 6 7 8 9 10 11 12 13 14 15 16 17 18 19 20 21 22 23
000
FTUS43 KDTX 222327
TAFDTW
TAF
KDTW 222327Z 2300/2406 16009KT P6SM SCT120
     FM230600 17008KT P6SM SCT050 OVC120
     FM231400 16007KT 5SM -RA BKN030 OVC100
     FM231800 14010KT 3SM RA BR OVC010
     FM240000 18014G20KT 2SM RA BR OVC015
     FM240300 26011KT 5SM -SHRA OVC020=

USA.gov is the U.S. government's official web portal to all federal, state and local government web resources and services.